Time;durP1;ratioP1;P1;durP2;ratioP2;P2;SDS_P1;SDS_P2;PMS_P1;PMS_P2;Temp;Humidity;BMP_temperature;BMP_pressure;BME280_temperature;BME280_humidity;BME280_pressure;Samples;Min_cycle;Max_cycle;Signal;HPM_P1;HPM_P2
2021/04/03 00:02:29;;;;;;;46.87;20.00;;;3.50;99.90;;;;;;4409295;28;659017;-86
2021/04/03 00:05:19;;;;;;;54.27;20.53;;;3.50;99.90;;;;;;4432631;28;658444;-86
2021/04/03 00:08:07;;;;;;;47.03;19.17;;;3.50;99.90;;;;;;4408919;28;658793;-86
2021/04/03 00:10:58;;;;;;;49.90;18.73;;;3.40;99.90;;;;;;4409152;28;658561;-86
2021/04/03 00:13:48;;;;;;;48.80;19.60;;;3.30;99.90;;;;;;4409881;28;658787;-86
2021/04/03 00:16:36;;;;;;;47.73;19.43;;;3.20;99.90;;;;;;4393021;28;659119;-86
2021/04/03 00:19:24;;;;;;;43.40;18.83;;;3.20;99.90;;;;;;4392874;28;658830;-86
2021/04/03 00:22:12;;;;;;;41.87;18.00;;;3.10;99.90;;;;;;4418754;28;658609;-86
2021/04/03 00:25:02;;;;;;;46.13;18.93;;;3.00;99.90;;;;;;4392891;28;659119;-86
2021/04/03 00:27:51;;;;;;;47.57;20.10;;;2.90;99.90;;;;;;4396506;28;658788;-87
2021/04/03 00:30:41;;;;;;;46.27;18.53;;;2.90;99.90;;;;;;4392176;28;658664;-87
2021/04/03 00:33:31;;;;;;;43.30;18.60;;;2.80;99.90;;;;;;4393548;28;658747;-87
2021/04/03 00:36:20;;;;;;;36.70;16.13;;;2.70;99.90;;;;;;4392045;28;658921;-86
2021/04/03 00:39:09;;;;;;;46.43;17.90;;;2.60;99.90;;;;;;4392848;28;659111;-87
2021/04/03 00:41:58;;;;;;;40.17;17.27;;;2.60;99.90;;;;;;4415450;28;658441;-86
2021/04/03 00:44:47;;;;;;;48.70;18.63;;;2.50;99.90;;;;;;4388243;28;659129;-87
2021/04/03 00:47:37;;;;;;;41.30;16.37;;;2.50;99.90;;;;;;4382816;28;658787;-86
2021/04/03 00:50:33;;;;;;;42.87;17.10;;;2.50;99.90;;;;;;4398850;28;658788;-86
2021/04/03 00:53:23;;;;;;;42.90;16.93;;;2.50;99.90;;;;;;4389526;28;658840;-86
2021/04/03 00:56:11;;;;;;;37.37;16.07;;;2.50;99.90;;;;;;4392324;28;658772;-86
2021/04/03 00:59:00;;;;;;;39.57;16.80;;;2.50;99.90;;;;;;4391100;28;659293;-86
2021/04/03 01:01:50;;;;;;;48.67;18.63;;;2.50;99.90;;;;;;4398064;28;658992;-86
2021/04/03 01:04:42;;;;;;;52.03;19.43;;;2.50;99.90;;;;;;4405007;28;659010;-86
2021/04/03 01:07:30;;;;;;;42.60;16.97;;;2.60;99.90;;;;;;4392117;28;659054;-86
2021/04/03 01:10:19;;;;;;;49.57;17.90;;;2.50;99.90;;;;;;4392223;28;658747;-86
2021/04/03 01:13:16;;;;;;;41.67;16.70;;;2.50;99.90;;;;;;4415094;28;658731;-86
2021/04/03 01:16:09;;;;;;;49.17;18.87;;;2.50;99.90;;;;;;4392750;28;659196;-86
2021/04/03 01:19:15;;;;;;;46.53;17.23;;;2.50;99.90;;;;;;4408980;28;659065;-86
2021/04/03 01:22:33;;;;;;;44.80;18.03;;;2.40;99.90;;;;;;4402071;28;658787;-86
2021/04/03 01:25:26;;;;;;;42.87;18.00;;;2.40;99.90;;;;;;4407824;28;659231;-86
2021/04/03 01:28:42;;;;;;;51.60;18.67;;;2.40;99.90;;;;;;4411544;28;658287;-86
2021/04/03 01:31:32;;;;;;;49.57;19.87;;;2.40;99.90;;;;;;4408482;28;658684;-86
2021/04/03 01:34:22;;;;;;;51.97;22.23;;;2.40;99.90;;;;;;4401095;28;658568;-86
2021/04/03 01:37:14;;;;;;;58.13;23.70;;;2.50;99.90;;;;;;4411648;28;658648;-86
2021/04/03 01:40:02;;;;;;;63.07;23.97;;;2.60;99.90;;;;;;4411823;28;659417;-86
2021/04/03 01:42:54;;;;;;;62.13;23.10;;;2.60;99.90;;;;;;4412031;28;658566;-86
2021/04/03 01:45:46;;;;;;;57.17;21.57;;;2.60;99.90;;;;;;4411817;28;659244;-86
2021/04/03 01:48:37;;;;;;;64.07;22.93;;;2.70;99.90;;;;;;4409884;28;659264;-87
2021/04/03 01:51:26;;;;;;;62.70;22.88;;;2.70;99.90;;;;;;4412144;28;659013;-86
2021/04/03 01:54:14;;;;;;;61.50;22.40;;;2.70;99.90;;;;;;4411712;28;658893;-86
2021/04/03 01:57:03;;;;;;;52.85;22.02;;;2.80;99.90;;;;;;4434271;28;658394;-86
2021/04/03 01:59:52;;;;;;;56.80;22.50;;;2.80;99.90;;;;;;4411064;28;659302;-86
2021/04/03 02:02:41;;;;;;;48.63;21.07;;;2.80;99.90;;;;;;4407490;28;659375;-86
2021/04/03 02:05:31;;;;;;;54.30;22.40;;;2.80;99.90;;;;;;4411359;28;658669;-86
2021/04/03 02:08:22;;;;;;;55.55;21.27;;;2.80;99.90;;;;;;4410661;28;659005;-86
2021/04/03 02:11:10;;;;;;;53.50;22.63;;;2.80;99.90;;;;;;4407678;28;659313;-86
2021/04/03 02:13:59;;;;;;;53.30;21.83;;;2.80;99.90;;;;;;4412153;28;658896;-86
2021/04/03 02:16:47;;;;;;;50.97;21.23;;;2.70;99.90;;;;;;4434896;28;658731;-86
2021/04/03 02:19:37;;;;;;;61.10;22.43;;;2.80;99.90;;;;;;4407967;28;658830;-87
2021/04/03 02:22:25;;;;;;;51.80;21.30;;;2.80;99.90;;;;;;4411164;28;658389;-86
2021/04/03 02:25:15;;;;;;;51.53;21.20;;;2.70;99.90;;;;;;4411055;28;658667;-86
2021/04/03 02:28:03;;;;;;;51.97;22.10;;;2.70;99.90;;;;;;4433945;28;658631;-86
2021/04/03 02:30:52;;;;;;;57.07;23.30;;;2.60;99.90;;;;;;4410642;28;658785;-86
2021/04/03 02:33:40;;;;;;;56.57;23.87;;;2.60;99.90;;;;;;4409902;28;659041;-86
2021/04/03 02:36:29;;;;;;;59.97;24.42;;;2.60;99.90;;;;;;4420175;28;658298;-86
2021/04/03 02:39:18;;;;;;;58.27;23.20;;;2.60;99.90;;;;;;4423784;28;658459;-86
2021/04/03 02:42:10;;;;;;;64.10;25.53;;;2.60;99.90;;;;;;4410660;28;659231;-86
2021/04/03 02:45:02;;;;;;;47.17;21.70;;;2.60;99.90;;;;;;4429060;28;659157;-86
2021/04/03 02:47:51;;;;;;;50.97;22.17;;;2.50;99.90;;;;;;4410934;28;658778;-86
2021/04/03 02:50:40;;;;;;;56.17;21.20;;;2.50;99.90;;;;;;4409294;28;658849;-86
2021/04/03 02:53:31;;;;;;;74.97;31.87;;;2.50;99.90;;;;;;4411309;28;658677;-86
2021/04/03 02:56:20;;;;;;;79.37;32.77;;;2.50;99.90;;;;;;4410785;28;658434;-86
2021/04/03 02:59:09;;;;;;;80.77;31.27;;;2.50;99.90;;;;;;4423095;28;658498;-86
2021/04/03 03:01:58;;;;;;;87.30;34.30;;;2.60;99.90;;;;;;4432548;28;657825;-86
2021/04/03 03:04:48;;;;;;;80.73;31.43;;;2.60;99.90;;;;;;4406107;28;658767;-86
2021/04/03 03:07:39;;;;;;;80.13;33.50;;;2.60;99.90;;;;;;4406530;28;658603;-86
2021/04/03 03:10:26;;;;;;;83.63;32.97;;;2.70;99.90;;;;;;4410609;28;658891;-86
2021/04/03 03:13:15;;;;;;;87.57;33.80;;;2.60;99.90;;;;;;4410303;28;658838;-86
2021/04/03 03:16:04;;;;;;;92.27;37.07;;;2.70;99.90;;;;;;4409779;28;658958;-86
2021/04/03 03:18:54;;;;;;;85.60;33.27;;;2.70;99.90;;;;;;4433668;28;659195;-86
2021/04/03 03:21:42;;;;;;;84.77;35.47;;;2.60;99.90;;;;;;4410459;28;658457;-86
2021/04/03 03:24:31;;;;;;;83.80;34.13;;;2.60;99.90;;;;;;4399985;28;658843;-86
2021/04/03 03:27:20;;;;;;;80.80;32.40;;;2.70;99.90;;;;;;4395725;28;658985;-86
2021/04/03 03:30:11;;;;;;;78.27;32.07;;;2.70;99.90;;;;;;4425410;28;658931;-86
2021/04/03 03:33:00;;;;;;;81.93;33.40;;;2.60;99.90;;;;;;4407836;28;658569;-86
2021/04/03 03:35:50;;;;;;;73.63;32.73;;;2.60;99.90;;;;;;4412602;28;658448;-86
2021/04/03 03:38:40;;;;;;;71.00;29.57;;;2.70;99.90;;;;;;4409246;28;658720;-86
2021/04/03 03:41:29;;;;;;;77.32;31.08;;;2.60;99.90;;;;;;4409300;28;658869;-86
2021/04/03 03:44:18;;;;;;;81.50;31.47;;;2.50;99.90;;;;;;4433132;28;659044;-85
2021/04/03 03:47:10;;;;;;;79.33;33.00;;;2.60;99.90;;;;;;4408960;28;658752;-87
2021/04/03 03:49:58;;;;;;;85.20;32.30;;;2.70;99.90;;;;;;4406024;28;658683;-85
2021/04/03 03:52:46;;;;;;;86.07;33.47;;;2.70;99.90;;;;;;4409846;28;659902;-85
2021/04/03 03:55:35;;;;;;;75.70;32.30;;;2.70;99.90;;;;;;4406016;28;659255;-85
2021/04/03 03:58:25;;;;;;;77.50;32.53;;;2.70;99.90;;;;;;4409699;28;658865;-85
2021/04/03 04:01:13;;;;;;;83.77;33.33;;;2.70;99.90;;;;;;4398876;28;658609;-85
2021/04/03 04:04:02;;;;;;;84.20;31.40;;;2.70;99.90;;;;;;4432623;28;658923;-85
2021/04/03 04:06:51;;;;;;;77.45;31.88;;;2.70;99.90;;;;;;4409774;28;658972;-85
2021/04/03 04:09:40;;;;;;;81.53;33.07;;;2.60;99.90;;;;;;4408955;28;658397;-85
2021/04/03 04:12:30;;;;;;;78.15;31.25;;;2.70;99.90;;;;;;4398391;28;659041;-85
2021/04/03 04:15:20;;;;;;;72.93;31.90;;;2.70;99.90;;;;;;4403770;28;658483;-85
2021/04/03 04:18:10;;;;;;;77.97;30.40;;;2.70;99.90;;;;;;4423391;28;658926;-86
2021/04/03 04:20:59;;;;;;;81.03;32.23;;;2.80;99.90;;;;;;4423788;28;658611;-85
2021/04/03 04:23:49;;;;;;;72.27;30.13;;;2.80;99.90;;;;;;4433913;28;659128;-85
2021/04/03 04:26:37;;;;;;;72.53;30.97;;;2.80;99.90;;;;;;4399599;28;658421;-85
2021/04/03 04:29:27;;;;;;;64.85;28.83;;;2.80;99.90;;;;;;4410631;28;658870;-85
2021/04/03 04:32:16;;;;;;;67.33;28.70;;;2.80;99.90;;;;;;4396718;28;659075;-85
2021/04/03 04:35:05;;;;;;;68.67;27.83;;;2.80;99.90;;;;;;4410440;28;658640;-85
2021/04/03 04:37:54;;;;;;;66.17;28.27;;;2.80;99.90;;;;;;4410666;28;658817;-86
2021/04/03 04:40:42;;;;;;;71.53;28.93;;;2.70;99.90;;;;;;4423545;28;658436;-85
2021/04/03 04:43:30;;;;;;;67.23;28.70;;;2.60;99.90;;;;;;4410379;28;659386;-85
2021/04/03 04:46:20;;;;;;;65.63;29.10;;;2.60;99.90;;;;;;4414895;28;658937;-86
2021/04/03 04:49:08;;;;;;;74.55;30.05;;;2.60;99.90;;;;;;4414742;28;658976;-85
2021/04/03 04:51:57;;;;;;;72.03;29.17;;;2.60;99.90;;;;;;4430110;28;658665;-85
2021/04/03 04:54:45;;;;;;;64.13;26.67;;;2.60;99.90;;;;;;4410212;28;659208;-85
2021/04/03 04:57:34;;;;;;;66.00;25.97;;;2.50;99.90;;;;;;4410947;28;658866;-85
2021/04/03 05:00:22;;;;;;;60.07;26.40;;;2.50;99.90;;;;;;4429991;28;658950;-85
2021/04/03 05:03:09;;;;;;;58.60;24.93;;;2.50;99.90;;;;;;4407374;28;659411;-85
2021/04/03 05:05:57;;;;;;;59.80;25.73;;;2.50;99.90;;;;;;4432977;28;658358;-84
2021/04/03 05:08:45;;;;;;;61.95;25.23;;;2.50;99.90;;;;;;4410436;28;659641;-85
2021/04/03 05:11:34;;;;;;;58.20;24.98;;;2.60;99.90;;;;;;4415502;28;658747;-85
2021/04/03 05:14:22;;;;;;;55.43;24.60;;;2.60;99.90;;;;;;4433451;28;658801;-85
2021/04/03 05:17:10;;;;;;;60.43;24.27;;;2.70;99.90;;;;;;4407793;28;659318;-85
2021/04/03 05:19:58;;;;;;;57.90;24.45;;;2.80;99.90;;;;;;4411154;28;659000;-85
2021/04/03 05:26:38;;;;;;;60.40;26.50;;;3.10;99.90;;;;;;4354704;28;658811;-85
2021/04/03 05:29:25;;;;;;;49.20;19.53;;;3.20;99.90;;;;;;4357215;28;659091;-85
2021/04/03 05:32:13;;;;;;;48.70;20.07;;;3.30;99.90;;;;;;4356134;28;659015;-85
2021/04/03 05:35:00;;;;;;;62.67;24.45;;;3.40;99.90;;;;;;4377021;28;659160;-85
2021/04/03 05:37:47;;;;;;;45.00;19.73;;;3.50;99.90;;;;;;4356712;28;659132;-85
2021/04/03 05:40:35;;;;;;;43.17;20.43;;;3.50;99.90;;;;;;4386685;28;658880;-86
2021/04/03 05:43:24;;;;;;;48.70;20.77;;;3.70;99.90;;;;;;4372914;28;658813;-86
2021/04/03 05:46:11;;;;;;;42.27;19.73;;;3.70;99.90;;;;;;4385205;28;658841;-85
2021/04/03 05:48:59;;;;;;;45.13;19.70;;;3.70;99.90;;;;;;4374032;28;658541;-86
2021/04/03 05:51:46;;;;;;;43.33;19.67;;;3.80;99.90;;;;;;4396370;28;658420;-85
2021/04/03 05:54:35;;;;;;;40.60;18.47;;;3.80;99.90;;;;;;4373849;28;658480;-86
2021/04/03 05:57:24;;;;;;;41.77;19.33;;;3.90;99.90;;;;;;4367487;28;658889;-86
2021/04/03 06:00:15;;;;;;;44.33;19.33;;;3.90;99.90;;;;;;4375769;28;658993;-86
2021/04/03 06:03:02;;;;;;;44.20;19.70;;;3.90;99.90;;;;;;4373141;28;658530;-86
2021/04/03 06:05:49;;;;;;;41.07;19.83;;;3.80;99.90;;;;;;4379111;28;659120;-86
2021/04/03 06:08:37;;;;;;;44.80;19.97;;;3.70;99.90;;;;;;4372834;28;658629;-86
2021/04/03 06:11:43;;;;;;;39.50;18.83;;;3.70;99.90;;;;;;4359569;28;658394;-86
2021/04/03 06:14:34;;;;;;;40.40;19.00;;;3.70;99.90;;;;;;4343258;28;659070;-86
2021/04/03 06:17:26;;;;;;;39.40;18.77;;;3.70;99.90;;;;;;4372180;28;659362;-85
2021/04/03 06:20:13;;;;;;;35.27;16.93;;;3.80;99.90;;;;;;4349795;28;659261;-86
2021/04/03 06:23:00;;;;;;;33.50;16.30;;;3.70;99.90;;;;;;4435416;28;659217;-86
2021/04/03 06:25:54;;;;;;;37.37;19.13;;;3.70;99.90;;;;;;4412772;28;658782;-87
2021/04/03 06:28:41;;;;;;;46.60;22.03;;;3.60;99.90;;;;;;4413339;28;658575;-86
2021/04/03 06:31:28;;;;;;;46.50;22.60;;;3.60;99.90;;;;;;4412405;28;658415;-86
2021/04/03 06:34:25;;;;;;;49.90;24.43;;;3.40;99.90;;;;;;4434734;28;658930;-86
2021/04/03 06:37:12;;;;;;;50.42;24.67;;;3.30;99.90;;;;;;4412093;28;658404;-86
2021/04/03 06:40:02;;;;;;;52.90;25.10;;;3.30;99.90;;;;;;4435602;28;658573;-86
2021/04/03 06:42:51;;;;;;;50.80;23.47;;;3.30;99.90;;;;;;4412272;28;659300;-86
2021/04/03 06:45:40;;;;;;;50.03;22.90;;;3.30;99.90;;;;;;4411868;28;659156;-86
2021/04/03 06:48:27;;;;;;;48.40;23.27;;;3.50;99.90;;;;;;4429831;28;658872;-86
2021/04/03 06:51:16;;;;;;;41.97;21.43;;;3.70;99.90;;;;;;4435162;28;658626;-84
2021/04/03 06:54:04;;;;;;;39.27;19.57;;;3.80;99.90;;;;;;4411594;28;659103;-86
2021/04/03 06:56:51;;;;;;;30.77;16.40;;;4.00;99.90;;;;;;4431057;28;659433;-86
2021/04/03 06:59:44;;;;;;;31.20;16.20;;;4.20;99.90;;;;;;4412392;28;658591;-86
2021/04/03 07:02:31;;;;;;;28.70;14.97;;;4.20;99.90;;;;;;4412302;28;658827;-84
2021/04/03 07:05:19;;;;;;;23.77;12.70;;;4.20;99.90;;;;;;4398247;28;658578;-85
2021/04/03 07:08:08;;;;;;;28.70;15.00;;;4.10;99.90;;;;;;4434441;28;658348;-86
2021/04/03 07:10:55;;;;;;;28.53;15.17;;;3.90;99.90;;;;;;4412211;28;658924;-86
2021/04/03 07:13:43;;;;;;;23.23;13.53;;;3.90;99.90;;;;;;4411715;28;658417;-86
2021/04/03 07:16:31;;;;;;;22.47;12.07;;;4.00;99.90;;;;;;4433585;28;659544;-86
2021/04/03 07:19:20;;;;;;;25.07;12.73;;;4.00;99.90;;;;;;4412141;28;659197;-86
2021/04/03 07:22:07;;;;;;;23.47;11.37;;;4.20;99.90;;;;;;4435074;28;658822;-85
2021/04/03 07:24:55;;;;;;;22.53;11.40;;;4.20;99.90;;;;;;4411841;28;658639;-86
2021/04/03 07:27:45;;;;;;;18.90;9.52;;;4.30;99.90;;;;;;4414782;28;658560;-86
2021/04/03 07:30:40;;;;;;;21.37;10.83;;;4.40;99.90;;;;;;4417157;28;658013;-87
2021/04/03 07:33:27;;;;;;;16.03;9.27;;;4.60;99.90;;;;;;4388640;28;659177;-86
2021/04/03 07:36:15;;;;;;;16.20;8.83;;;4.80;99.90;;;;;;4435501;28;657327;-86
2021/04/03 07:39:03;;;;;;;14.17;8.10;;;5.00;99.90;;;;;;4435693;28;657544;-85
2021/04/03 07:41:51;;;;;;;13.40;7.70;;;5.00;99.90;;;;;;4409479;28;657826;-85
2021/04/03 07:44:38;;;;;;;15.73;7.63;;;5.20;99.90;;;;;;4412314;28;657526;-86
2021/04/03 07:47:26;;;;;;;11.30;6.73;;;5.20;99.90;;;;;;4432038;28;657842;-87
2021/04/03 07:50:13;;;;;;;13.83;7.87;;;5.30;99.90;;;;;;4408906;28;657301;-86
2021/04/03 07:53:00;;;;;;;15.33;8.33;;;5.40;99.90;;;;;;4419697;28;658198;-86
2021/04/03 07:55:48;;;;;;;15.07;7.77;;;5.50;99.90;;;;;;4397279;28;657546;-86
2021/04/03 07:58:36;;;;;;;17.87;7.67;;;5.70;99.90;;;;;;4415704;28;658980;-85
2021/04/03 08:01:25;;;;;;;14.60;7.93;;;5.90;99.90;;;;;;4396123;28;658317;-86
2021/04/03 08:04:12;;;;;;;17.10;7.73;;;6.00;99.90;;;;;;4396470;28;658005;-86
2021/04/03 08:07:00;;;;;;;14.10;6.93;;;6.10;99.90;;;;;;4415840;28;657795;-85
2021/04/03 08:09:48;;;;;;;15.73;7.73;;;6.00;99.90;;;;;;4406260;28;657647;-85
2021/04/03 08:12:35;;;;;;;16.07;8.20;;;6.20;99.90;;;;;;4415438;28;658469;-86
2021/04/03 08:15:24;;;;;;;17.23;9.97;;;6.20;99.90;;;;;;4415886;28;657926;-85
2021/04/03 08:18:11;;;;;;;20.23;11.53;;;5.70;99.90;;;;;;4434447;28;657525;-86
2021/04/03 08:20:58;;;;;;;22.58;12.50;;;5.30;99.90;;;;;;4410837;28;658673;-86
2021/04/03 08:23:48;;;;;;;25.00;14.77;;;5.10;99.90;;;;;;4430574;28;658996;-85
2021/04/03 08:26:36;;;;;;;28.47;14.87;;;4.90;99.90;;;;;;4410919;28;658965;-85
2021/04/03 08:29:27;;;;;;;27.53;15.60;;;4.90;99.90;;;;;;4399237;28;658869;-86
2021/04/03 08:32:15;;;;;;;26.43;14.93;;;4.80;99.90;;;;;;4411345;28;659838;-86
2021/04/03 08:35:03;;;;;;;29.00;15.40;;;4.70;99.90;;;;;;4411281;28;658915;-85
2021/04/03 08:38:08;;;;;;;25.87;13.83;;;4.60;99.90;;;;;;4433965;28;658935;-86
2021/04/03 08:40:56;;;;;;;31.00;15.23;;;4.70;99.90;;;;;;4411634;28;659003;-86
2021/04/03 08:43:43;;;;;;;27.77;15.73;;;4.60;99.90;;;;;;4411107;28;658858;-85
2021/04/03 08:46:30;;;;;;;31.30;15.97;;;4.60;99.90;;;;;;4423028;28;658730;-85
2021/04/03 08:49:25;;;;;;;33.43;17.07;;;4.60;99.90;;;;;;4411449;28;658930;-86
2021/04/03 08:52:13;;;;;;;31.73;15.87;;;4.60;99.90;;;;;;4388416;28;659035;-86
2021/04/03 08:55:00;;;;;;;30.40;15.00;;;4.60;99.90;;;;;;4430487;28;659073;-85
2021/04/03 08:57:48;;;;;;;30.73;16.17;;;4.50;99.90;;;;;;4410844;28;658949;-86
2021/04/03 09:00:35;;;;;;;33.97;16.57;;;4.50;99.90;;;;;;4430670;28;659608;-86
2021/04/03 09:03:22;;;;;;;35.27;16.77;;;4.40;99.90;;;;;;4422890;28;658944;-85
2021/04/03 09:06:11;;;;;;;40.67;18.77;;;4.40;99.90;;;;;;4434154;28;658463;-85
2021/04/03 09:09:07;;;;;;;31.77;16.17;;;4.50;99.90;;;;;;4410558;28;658348;-86
2021/04/03 09:11:58;;;;;;;35.87;17.50;;;4.60;99.90;;;;;;4411152;28;658625;-85
2021/04/03 09:14:52;;;;;;;38.50;18.23;;;4.70;99.90;;;;;;4406880;28;658840;-85
2021/04/03 09:17:49;;;;;;;40.17;21.03;;;4.90;99.90;;;;;;4406928;28;658413;-86
2021/04/03 09:20:50;;;;;;;38.57;18.43;;;5.10;99.90;;;;;;4407067;28;659009;-86
2021/04/03 09:23:42;;;;;;;28.23;13.73;;;5.10;99.90;;;;;;4389321;28;658738;-86
2021/04/03 09:26:36;;;;;;;25.30;12.90;;;5.00;99.90;;;;;;4410715;28;658710;-85
2021/04/03 09:29:23;;;;;;;30.53;13.93;;;5.00;99.90;;;;;;4410571;28;658595;-86
2021/04/03 09:32:11;;;;;;;22.48;11.27;;;5.20;99.90;;;;;;4432793;28;658838;-86
2021/04/03 09:35:03;;;;;;;27.23;13.60;;;5.30;99.90;;;;;;4411142;28;658622;-86
2021/04/03 09:37:57;;;;;;;26.23;12.37;;;5.50;99.90;;;;;;4410280;28;658859;-86
2021/04/03 09:40:46;;;;;;;24.00;13.93;;;6.10;99.90;;;;;;4412282;28;659013;-86
2021/04/03 09:43:40;;;;;;;35.17;17.30;;;6.40;99.90;;;;;;4413954;28;658225;-86
2021/04/03 09:46:29;;;;;;;26.37;13.90;;;6.60;99.90;;;;;;4415274;28;658797;-86
2021/04/03 09:49:17;;;;;;;32.47;14.97;;;6.60;99.90;;;;;;4415096;28;658507;-86
2021/04/03 09:52:06;;;;;;;30.13;15.53;;;6.70;99.90;;;;;;4396706;28;658960;-86
2021/04/03 09:54:53;;;;;;;32.63;15.80;;;6.90;99.90;;;;;;4397526;28;658948;-86
2021/04/03 09:57:41;;;;;;;31.60;17.20;;;7.00;99.90;;;;;;4416309;28;659267;-86
2021/04/03 10:00:29;;;;;;;28.67;15.73;;;7.20;99.90;;;;;;4396927;28;659041;-86
2021/04/03 10:03:16;;;;;;;29.53;16.67;;;7.50;99.90;;;;;;4431211;28;658782;-86
2021/04/03 10:06:04;;;;;;;29.43;16.10;;;7.80;99.90;;;;;;4412689;28;658483;-86
2021/04/03 10:08:51;;;;;;;30.30;15.70;;;8.10;99.90;;;;;;4436162;28;658706;-85
2021/04/03 10:11:39;;;;;;;29.80;15.03;;;7.80;99.90;;;;;;4410425;28;658636;-86
2021/04/03 10:14:27;;;;;;;27.90;13.93;;;7.70;99.90;;;;;;4428902;28;659478;-86
2021/04/03 10:17:14;;;;;;;23.93;13.30;;;7.20;99.90;;;;;;4410459;28;659338;-86
2021/04/03 10:20:01;;;;;;;24.83;13.53;;;6.70;99.90;;;;;;4435560;28;658539;-86
2021/04/03 10:22:49;;;;;;;28.93;13.50;;;6.20;99.90;;;;;;4413074;28;658862;-86
2021/04/03 10:25:36;;;;;;;24.57;12.03;;;6.20;99.90;;;;;;4422695;28;659626;-85
2021/04/03 10:28:23;;;;;;;17.27;10.20;;;6.20;99.90;;;;;;4412555;28;658642;-86
2021/04/03 10:31:11;;;;;;;14.88;8.02;;;6.10;99.90;;;;;;4433813;28;658579;-86
2021/04/03 10:33:58;;;;;;;19.05;10.25;;;5.60;99.90;;;;;;4414068;28;657659;-86
2021/04/03 10:36:46;;;;;;;26.50;12.50;;;4.90;99.90;;;;;;4435212;28;658369;-85
2021/04/03 10:39:37;;;;;;;22.37;11.67;;;4.70;99.90;;;;;;4412177;28;658950;-86
2021/04/03 10:42:31;;;;;;;18.57;9.97;;;4.60;99.90;;;;;;4411487;28;658212;-85
2021/04/03 10:45:20;;;;;;;17.15;8.48;;;4.40;99.90;;;;;;4388354;28;657925;-84
2021/04/03 10:48:12;;;;;;;13.87;7.57;;;4.10;99.90;;;;;;4413972;28;658019;-86
2021/04/03 10:51:02;;;;;;;15.17;8.43;;;4.10;99.90;;;;;;4413616;28;657739;-85
2021/04/03 10:54:23;;;;;;;17.80;9.63;;;4.10;99.90;;;;;;4413203;28;657668;-85
2021/04/03 10:57:14;;;;;;;23.97;11.90;;;4.40;99.90;;;;;;4409927;28;658010;-85
2021/04/03 11:00:01;;;;;;;19.97;10.03;;;4.80;99.90;;;;;;4432565;28;658703;-84
2021/04/03 11:02:48;;;;;;;27.00;14.17;;;5.10;99.90;;;;;;4412503;28;658641;-86
2021/04/03 11:05:36;;;;;;;25.93;13.73;;;5.20;99.90;;;;;;4434508;28;658955;-87
2021/04/03 11:08:23;;;;;;;19.97;12.20;;;5.20;99.90;;;;;;4412551;28;658287;-86
2021/04/03 11:11:10;;;;;;;25.40;10.47;;;5.20;99.90;;;;;;4435007;28;658967;-84
2021/04/03 11:13:57;;;;;;;15.27;8.67;;;5.20;99.90;;;;;;4402142;28;658934;-86
2021/04/03 11:16:45;;;;;;;13.20;7.10;;;5.10;99.90;;;;;;4436020;28;658471;-86
2021/04/03 11:19:32;;;;;;;9.67;5.10;;;4.80;99.90;;;;;;4432378;28;657455;-86
2021/04/03 11:22:20;;;;;;;11.40;6.20;;;4.60;99.90;;;;;;4437818;28;656765;-85
2021/04/03 11:25:08;;;;;;;14.23;7.07;;;4.40;99.90;;;;;;4413388;28;657545;-85
2021/04/03 11:27:55;;;;;;;40.97;14.50;;;4.40;99.90;;;;;;4435731;28;657924;-85
2021/04/03 11:30:42;;;;;;;16.37;7.20;;;4.50;99.90;;;;;;4411569;28;658692;-86
2021/04/03 11:33:29;;;;;;;9.17;5.73;;;4.50;99.90;;;;;;4437037;28;658403;-86
2021/04/03 11:36:18;;;;;;;13.37;7.00;;;4.70;99.90;;;;;;4437244;28;656609;-85
2021/04/03 11:39:09;;;;;;;8.17;5.13;;;5.10;99.90;;;;;;4401841;28;657549;-85
2021/04/03 11:41:56;;;;;;;6.97;4.40;;;5.40;99.90;;;;;;4414428;28;656693;-85
2021/04/03 11:44:43;;;;;;;6.30;3.67;;;5.70;99.90;;;;;;4413782;28;657118;-85
2021/04/03 11:47:30;;;;;;;5.03;3.00;;;5.60;99.90;;;;;;4425897;28;657270;-86
2021/04/03 11:50:17;;;;;;;6.72;3.58;;;5.80;99.90;;;;;;4413585;28;656518;-85
2021/04/03 11:53:05;;;;;;;13.03;5.50;;;6.30;99.90;;;;;;4432868;28;657723;-85
2021/04/03 11:55:53;;;;;;;7.00;4.10;;;7.10;99.90;;;;;;4428598;28;658080;-85
2021/04/03 11:58:40;;;;;;;7.93;4.33;;;7.60;99.90;;;;;;4436228;28;657387;-85
2021/04/03 12:01:28;;;;;;;10.30;5.20;;;7.90;99.90;;;;;;4413430;28;656925;-86
2021/04/03 12:04:15;;;;;;;10.57;5.47;;;8.20;99.90;;;;;;4431175;28;657941;-85
2021/04/03 12:07:03;;;;;;;8.70;5.50;;;8.30;99.90;;;;;;4410894;28;657624;-86
2021/04/03 12:09:50;;;;;;;10.57;6.33;;;8.40;99.90;;;;;;4433130;28;656981;-86
2021/04/03 12:12:39;;;;;;;14.77;7.10;;;8.30;99.90;;;;;;4418311;28;657475;-86
2021/04/03 12:15:26;;;;;;;13.83;6.90;;;8.30;99.90;;;;;;4431979;28;657353;-85
2021/04/03 12:18:13;;;;;;;14.37;8.17;;;8.40;99.90;;;;;;4410506;28;657841;-86
2021/04/03 12:21:01;;;;;;;14.47;7.40;;;9.10;99.90;;;;;;4435540;28;657714;-86
2021/04/03 12:23:48;;;;;;;23.27;10.57;;;9.70;99.90;;;;;;4411969;28;657765;-86
2021/04/03 12:26:35;;;;;;;10.93;7.10;;;11.00;99.90;;;;;;4429485;28;659129;-86
2021/04/03 12:29:23;;;;;;;7.47;5.13;;;11.80;99.90;;;;;;4421772;28;658286;-86
2021/04/03 12:32:10;;;;;;;9.67;5.83;;;12.40;99.90;;;;;;4435650;28;658065;-86
2021/04/03 12:34:57;;;;;;;20.60;9.77;;;12.30;99.90;;;;;;4412068;28;657249;-86
2021/04/03 12:37:45;;;;;;;10.77;6.03;;;11.70;99.90;;;;;;4430602;28;659588;-87
2021/04/03 12:40:32;;;;;;;9.23;5.67;;;11.00;99.90;;;;;;4422594;28;658483;-86
2021/04/03 12:43:20;;;;;;;11.23;6.20;;;10.80;99.90;;;;;;4424105;28;658048;-87
2021/04/03 12:46:08;;;;;;;10.57;5.90;;;10.60;99.90;;;;;;4422358;28;658479;-86
2021/04/03 12:48:56;;;;;;;10.97;6.60;;;10.40;97.80;;;;;;4433733;28;659597;-86
2021/04/03 12:51:43;;;;;;;14.83;7.43;;;9.90;99.90;;;;;;4410932;28;659137;-86
2021/04/03 12:54:30;;;;;;;9.57;5.87;;;9.50;99.90;;;;;;4434071;28;658537;-85
2021/04/03 12:57:17;;;;;;;9.97;6.47;;;9.40;99.50;;;;;;4413220;28;656896;-86
2021/04/03 13:00:06;;;;;;;12.20;6.80;;;9.10;99.90;;;;;;4436184;28;657166;-85
2021/04/03 13:02:54;;;;;;;11.77;7.40;;;8.90;99.90;;;;;;4412092;28;657854;-86
2021/04/03 13:05:41;;;;;;;13.57;6.73;;;9.00;99.90;;;;;;4434759;28;657556;-86
2021/04/03 13:08:28;;;;;;;14.27;8.05;;;9.10;99.90;;;;;;4411770;28;657704;-86
2021/04/03 13:11:15;;;;;;;13.43;7.80;;;9.10;99.90;;;;;;4434170;28;657926;-86
2021/04/03 13:14:03;;;;;;;13.43;6.87;;;9.00;99.90;;;;;;4411512;28;657333;-85
2021/04/03 13:21:13;;;;;;;12.20;7.60;;;9.20;99.90;;;;;;4260994;29;658424;-86
2021/04/03 13:24:01;;;;;;;13.83;7.90;;;9.20;99.90;;;;;;4197162;29;657385;-85
2021/04/03 13:26:48;;;;;;;12.40;7.47;;;9.40;99.90;;;;;;4188114;29;657861;-83
2021/04/03 13:29:35;;;;;;;29.17;12.07;;;9.40;99.90;;;;;;4214574;29;658146;-86
2021/04/03 13:32:22;;;;;;;12.03;6.57;;;9.50;99.90;;;;;;4217043;29;658731;-83
2021/04/03 13:35:10;;;;;;;10.70;5.47;;;9.50;99.90;;;;;;4196144;29;658026;-82
2021/04/03 13:37:57;;;;;;;11.30;5.90;;;9.30;97.30;;;;;;4206670;29;657616;-85
2021/04/03 13:40:45;;;;;;;9.57;6.00;;;9.50;98.90;;;;;;4217468;29;657577;-84
2021/04/03 13:43:32;;;;;;;26.10;11.03;;;9.60;97.50;;;;;;4199185;29;656494;-84
2021/04/03 13:46:19;;;;;;;11.38;6.50;;;9.90;98.10;;;;;;4217169;29;658720;-85
2021/04/03 13:49:06;;;;;;;10.85;6.22;;;10.30;98.20;;;;;;4217609;29;657491;-85
2021/04/03 13:51:53;;;;;;;13.53;6.93;;;10.70;95.90;;;;;;4193226;29;659037;-85
2021/04/03 13:54:40;;;;;;;11.93;6.63;;;11.40;96.10;;;;;;4216637;29;658551;-84
2021/04/03 13:57:30;;;;;;;12.40;6.40;;;11.80;94.40;;;;;;4194869;29;659008;-84
2021/04/03 14:00:18;;;;;;;12.90;6.27;;;12.30;94.90;;;;;;4233826;29;658772;-85
2021/04/03 14:03:06;;;;;;;20.67;9.53;;;12.30;91.50;;;;;;4303205;28;658500;-84
2021/04/03 14:05:53;;;;;;;14.47;7.50;;;12.30;93.00;;;;;;4413413;28;658743;-85
2021/04/03 14:08:40;;;;;;;11.40;6.67;;;12.20;91.50;;;;;;4431826;28;658728;-85
2021/04/03 14:11:27;;;;;;;12.87;7.10;;;11.80;91.20;;;;;;4413161;28;658771;-85
2021/04/03 14:14:15;;;;;;;8.23;5.57;;;11.20;90.30;;;;;;4432244;28;659267;-84
2021/04/03 14:17:03;;;;;;;11.40;6.60;;;10.50;89.60;;;;;;4397118;28;657882;-85
2021/04/03 14:19:50;;;;;;;21.87;9.23;;;9.90;91.00;;;;;;4414364;28;659266;-84
2021/04/03 14:22:37;;;;;;;15.40;7.47;;;9.80;91.50;;;;;;4412120;28;657350;-84
2021/04/03 14:25:24;;;;;;;11.47;5.80;;;10.10;90.70;;;;;;4419382;28;658019;-84
2021/04/03 14:28:13;;;;;;;8.10;5.40;;;10.50;89.10;;;;;;4417168;28;658794;-84
2021/04/03 14:31:02;;;;;;;7.77;5.03;;;10.70;86.60;;;;;;4396552;28;657417;-84